createdAt,value
2019-04-23T00:02:46.136Z,11.00
2019-04-23T00:05:00.127Z,11.00
2019-04-23T00:10:03.435Z,11.00
2019-04-23T00:15:08.753Z,10.90
2019-04-23T00:17:38.537Z,10.80
2019-04-23T00:20:09.599Z,10.80
2019-04-23T00:26:00.262Z,10.80
2019-04-23T00:28:20.434Z,10.80
2019-04-23T00:35:50.364Z,10.70
2019-04-23T00:38:26.508Z,10.70
2019-04-23T00:43:28.899Z,10.60
2019-04-23T00:48:37.311Z,10.60
2019-04-23T00:50:56.213Z,10.60
2019-04-23T00:53:27.887Z,10.50
2019-04-23T00:56:20.644Z,10.50
2019-04-23T00:58:38.061Z,10.40
2019-04-23T01:00:59.152Z,10.50
2019-04-23T01:03:25.237Z,10.40
2019-04-23T01:06:06.443Z,10.40
2019-04-23T01:08:36.857Z,10.40
2019-04-23T01:11:16.722Z,10.30
2019-04-23T01:16:31.519Z,10.30
2019-04-23T01:19:24.511Z,10.30
2019-04-23T01:21:19.798Z,10.20
2019-04-23T01:24:21.283Z,10.20
2019-04-23T01:30:10.068Z,10.10
2019-04-23T01:32:36.958Z,10.10
2019-04-23T01:37:44.797Z,10.10
2019-04-23T01:45:20.328Z,10.10
2019-04-23T01:55:21.170Z,10.00
2019-04-23T01:57:58.170Z,10.10
2019-04-23T02:00:22.874Z,10.10
2019-04-23T02:02:55.938Z,10.10
2019-04-23T02:07:56.908Z,10.10
2019-04-23T02:10:38.059Z,10.00
2019-04-23T02:13:01.582Z,10.00
2019-04-23T02:15:34.627Z,9.90
2019-04-23T02:18:00.419Z,9.90
2019-04-23T02:20:32.594Z,9.90
2019-04-23T02:26:01.291Z,9.80
2019-04-23T02:28:25.780Z,9.80
2019-04-23T02:33:36.300Z,9.90
2019-04-23T02:36:02.405Z,9.90
2019-04-23T02:38:42.937Z,9.90
2019-04-23T02:41:20.382Z,9.90
2019-04-23T02:43:57.052Z,9.90
2019-04-23T02:48:56.281Z,9.90
2019-04-23T02:51:06.682Z,9.90
2019-04-23T03:04:01.482Z,9.90
2019-04-23T03:08:50.561Z,10.00
2019-04-23T03:14:00.289Z,9.80
2019-04-23T03:16:33.922Z,9.90
2019-04-23T03:19:02.956Z,9.90
2019-04-23T03:21:51.809Z,9.90
2019-04-23T03:27:17.187Z,9.80
2019-04-23T03:29:51.199Z,9.80
2019-04-23T03:37:35.604Z,9.90
2019-04-23T03:44:59.854Z,9.70
2019-04-23T03:50:26.639Z,9.70
2019-04-23T03:57:30.630Z,9.70
2019-04-23T03:59:56.815Z,9.70
2019-04-23T04:02:40.344Z,9.70
2019-04-23T04:04:45.205Z,9.70
2019-04-23T04:07:41.341Z,9.70
2019-04-23T04:09:51.898Z,9.70
2019-04-23T04:12:29.318Z,9.60
2019-04-23T04:17:33.042Z,9.70
2019-04-23T04:22:37.458Z,9.60
2019-04-23T04:25:06.890Z,9.70
2019-04-23T04:27:45.334Z,9.70
2019-04-23T04:32:42.927Z,9.70
2019-04-23T04:40:10.764Z,9.70
2019-04-23T04:42:34.094Z,9.70
2019-04-23T04:45:13.646Z,9.80
2019-04-23T04:47:42.526Z,9.80
2019-04-23T04:52:47.027Z,10.50
2019-04-23T04:55:12.068Z,11.20
2019-04-23T05:03:02.830Z,12.20
2019-04-23T05:05:47.978Z,12.50
2019-04-23T05:10:30.172Z,12.60
2019-04-23T05:12:45.222Z,12.80
2019-04-23T05:15:28.466Z,12.90
2019-04-23T05:18:17.415Z,13.00
2019-04-23T05:20:46.867Z,13.20
2019-04-23T05:25:44.976Z,13.40
2019-04-23T05:28:13.793Z,13.40
2019-04-23T05:33:18.522Z,12.60
2019-04-23T05:36:06.006Z,12.30
2019-04-23T05:38:29.196Z,12.30
2019-04-23T05:40:59.225Z,12.10
2019-04-23T05:43:22.379Z,12.10
2019-04-23T05:45:46.801Z,12.10
2019-04-23T05:50:59.098Z,12.30
2019-04-23T05:53:27.020Z,12.40
2019-04-23T05:55:55.266Z,12.70
2019-04-23T05:58:30.045Z,12.60
2019-04-23T06:01:33.589Z,12.30
2019-04-23T06:03:52.622Z,11.90
2019-04-23T06:06:20.257Z,11.90
2019-04-23T06:08:53.191Z,12.00
2019-04-23T06:11:28.465Z,12.20
2019-04-23T06:14:02.149Z,12.50
2019-04-23T06:16:32.721Z,12.70
2019-04-23T06:19:02.863Z,12.70
2019-04-23T06:21:34.682Z,13.20
2019-04-23T06:23:58.517Z,13.90
2019-04-23T06:26:42.940Z,14.40
2019-04-23T06:29:13.315Z,14.60
2019-04-23T06:31:36.677Z,14.90
2019-04-23T06:34:02.752Z,15.10
2019-04-23T06:36:34.364Z,15.40
2019-04-23T06:41:37.611Z,15.50
2019-04-23T06:44:27.039Z,15.40
2019-04-23T06:46:56.849Z,15.40
2019-04-23T06:49:33.743Z,15.90
2019-04-23T06:54:41.058Z,16.00
2019-04-23T06:57:08.765Z,15.80
2019-04-23T06:59:33.572Z,16.00
2019-04-23T07:02:08.065Z,16.20
2019-04-23T07:04:36.319Z,16.20
2019-04-23T07:07:25.561Z,16.30
2019-04-23T07:09:26.018Z,16.00
2019-04-23T07:12:05.248Z,16.30
2019-04-23T07:14:44.015Z,16.10
2019-04-23T07:17:18.237Z,16.30
2019-04-23T07:22:16.420Z,16.60
2019-04-23T07:24:43.983Z,16.70
2019-04-23T07:27:15.993Z,16.60
2019-04-23T07:29:41.424Z,16.60
2019-04-23T07:32:11.120Z,16.80
2019-04-23T07:34:49.768Z,16.90
2019-04-23T07:37:32.747Z,16.80
2019-04-23T07:40:11.325Z,16.70
2019-04-23T07:45:35.297Z,17.00
2019-04-23T07:48:16.392Z,16.90
2019-04-23T07:50:54.957Z,17.10
2019-04-23T07:53:45.858Z,17.40
2019-04-23T07:56:02.294Z,17.60
2019-04-23T07:58:29.033Z,17.70
2019-04-23T08:00:57.025Z,17.60
2019-04-23T08:03:31.229Z,17.30
2019-04-23T08:06:03.921Z,17.00
2019-04-23T08:08:30.447Z,16.70
2019-04-23T08:13:55.652Z,16.50
2019-04-23T08:18:50.970Z,16.50
2019-04-23T08:21:40.287Z,16.50
2019-04-23T08:24:00.285Z,16.50
2019-04-23T08:26:55.224Z,16.50
2019-04-23T08:29:26.819Z,16.60
2019-04-23T08:34:35.842Z,16.80
2019-04-23T08:37:05.084Z,16.80
2019-04-23T08:39:43.288Z,16.60
2019-04-23T08:45:31.377Z,16.50
2019-04-23T08:56:08.976Z,16.40
2019-04-23T08:58:32.107Z,16.40
2019-04-23T09:03:30.088Z,16.60
2019-04-23T09:08:33.234Z,16.60
2019-04-23T09:11:16.641Z,16.60
2019-04-23T09:16:09.119Z,16.80
2019-04-23T09:18:35.233Z,16.90
2019-04-23T09:21:02.186Z,17.00
2019-04-23T09:26:02.316Z,17.00
2019-04-23T09:31:31.667Z,17.00
2019-04-23T09:34:09.895Z,16.90
2019-04-23T09:37:06.323Z,16.90
2019-04-23T09:39:43.051Z,17.00
2019-04-23T09:42:34.927Z,17.10
2019-04-23T09:45:20.422Z,17.10
2019-04-23T09:48:35.000Z,17.20
2019-04-23T09:50:54.082Z,17.30
2019-04-23T09:53:29.520Z,17.40
2019-04-23T09:56:10.353Z,17.30
2019-04-23T09:58:52.199Z,17.40
2019-04-23T10:03:57.663Z,17.20
2019-04-23T10:06:25.211Z,17.10
2019-04-23T10:08:56.238Z,17.10
2019-04-23T10:11:32.356Z,17.10
2019-04-23T10:14:04.022Z,17.40
2019-04-23T10:16:38.895Z,17.40
2019-04-23T10:19:17.183Z,17.50
2019-04-23T10:21:55.403Z,17.60
2019-04-23T10:24:25.216Z,17.60
2019-04-23T10:26:55.823Z,17.70
2019-04-23T10:29:29.819Z,17.80
2019-04-23T10:31:59.749Z,17.70
2019-04-23T10:34:30.500Z,17.60
2019-04-23T10:37:01.716Z,17.70
2019-04-23T10:39:35.587Z,17.70
2019-04-23T10:42:03.414Z,17.80
2019-04-23T10:45:15.252Z,17.80
2019-04-23T10:51:26.030Z,17.90
2019-04-23T10:54:06.850Z,18.00
2019-04-23T10:56:40.758Z,18.00
2019-04-23T10:59:06.478Z,18.20
2019-04-23T11:01:35.850Z,18.30
2019-04-23T11:04:21.221Z,18.20
2019-04-23T11:09:27.863Z,18.30
2019-04-23T11:11:53.746Z,18.40
2019-04-23T11:14:25.347Z,18.50
2019-04-23T11:16:57.057Z,18.50
2019-04-23T11:19:25.590Z,18.70
2019-04-23T11:22:06.183Z,18.60
2019-04-23T11:27:02.019Z,18.60
2019-04-23T11:29:34.543Z,18.50
2019-04-23T11:32:11.768Z,18.40
2019-04-23T11:34:47.523Z,18.30
2019-04-23T11:39:39.840Z,18.50
2019-04-23T11:42:04.909Z,18.50
2019-04-23T11:44:36.489Z,18.40
2019-04-23T11:47:07.786Z,18.50
2019-04-23T11:49:52.484Z,18.60
2019-04-23T11:52:09.781Z,18.60
2019-04-23T11:59:44.042Z,18.70
2019-04-23T12:05:20.453Z,18.70
2019-04-23T12:07:50.789Z,18.50
2019-04-23T12:10:54.354Z,18.50
2019-04-23T12:13:21.348Z,18.50
2019-04-23T12:15:51.818Z,18.60
2019-04-23T12:18:24.102Z,18.70
2019-04-23T12:20:49.075Z,18.60
2019-04-23T12:26:03.669Z,18.70
2019-04-23T12:28:30.116Z,18.70
2019-04-23T12:31:00.801Z,18.70
2019-04-23T12:33:36.492Z,18.70
2019-04-23T12:36:28.664Z,18.80
2019-04-23T12:38:49.253Z,18.90
2019-04-23T12:41:20.974Z,18.90
2019-04-23T12:43:53.390Z,19.00
2019-04-23T12:46:29.863Z,19.10
2019-04-23T12:51:38.491Z,19.20
2019-04-23T12:53:57.691Z,19.20
2019-04-23T12:56:46.442Z,19.10
2019-04-23T12:59:01.036Z,19.10
2019-04-23T13:01:35.772Z,19.20
2019-04-23T13:03:59.636Z,19.20
2019-04-23T13:06:28.150Z,19.30
2019-04-23T13:09:17.853Z,19.40
2019-04-23T13:11:34.409Z,19.50
2019-04-23T13:14:07.164Z,19.60
2019-04-23T13:19:14.789Z,19.60
2019-04-23T13:24:26.540Z,19.40
2019-04-23T13:27:04.376Z,19.50
2019-04-23T13:29:43.518Z,19.60
2019-04-23T13:32:04.008Z,19.60
2019-04-23T13:34:40.923Z,19.50
2019-04-23T13:37:15.917Z,19.50
2019-04-23T13:39:39.740Z,19.60
2019-04-23T13:42:15.975Z,19.80
2019-04-23T13:44:42.408Z,19.90
2019-04-23T13:47:25.733Z,19.90
2019-04-23T13:49:42.072Z,20.10
2019-04-23T13:52:43.285Z,20.10
2019-04-23T13:57:46.657Z,20.10
2019-04-23T14:02:23.534Z,20.20
2019-04-23T14:07:30.330Z,20.00
2019-04-23T14:10:07.233Z,20.00
2019-04-23T14:12:34.848Z,19.90
2019-04-23T14:15:04.488Z,20.00
2019-04-23T14:17:51.582Z,20.00
2019-04-23T14:20:07.198Z,19.90
2019-04-23T14:27:39.912Z,20.10
2019-04-23T14:30:13.485Z,20.20
2019-04-23T14:32:35.015Z,20.20
2019-04-23T14:35:25.753Z,20.20
2019-04-23T14:37:53.183Z,20.30
2019-04-23T14:40:21.911Z,20.30
2019-04-23T14:42:56.137Z,20.40
2019-04-23T14:45:47.076Z,20.40
2019-04-23T14:47:59.117Z,20.50
2019-04-23T14:50:34.876Z,20.40
2019-04-23T14:53:06.781Z,20.40
2019-04-23T14:58:09.996Z,20.50
2019-04-23T15:00:43.261Z,20.50
2019-04-23T15:03:08.476Z,20.60
2019-04-23T15:08:03.896Z,20.70
2019-04-23T15:11:06.808Z,20.70
2019-04-23T15:24:13.928Z,20.70
2019-04-23T15:27:47.410Z,20.80
2019-04-23T15:29:08.608Z,20.90
2019-04-23T15:34:30.792Z,20.90
2019-04-23T15:37:34.529Z,20.90
2019-04-23T15:42:12.616Z,20.90
2019-04-23T15:44:39.181Z,20.90
2019-04-23T15:47:10.240Z,20.90
2019-04-23T15:49:47.443Z,20.80
2019-04-23T15:52:10.794Z,20.70
2019-04-23T15:54:42.893Z,20.70
2019-04-23T15:57:47.755Z,20.70
2019-04-23T16:01:47.697Z,20.60
2019-04-23T16:04:19.683Z,20.60
2019-04-23T16:06:47.915Z,20.70
2019-04-23T16:09:45.854Z,20.80
2019-04-23T16:12:09.760Z,20.80
2019-04-23T16:15:02.702Z,21.00
2019-04-23T16:22:39.380Z,21.00
2019-04-23T16:27:49.092Z,20.80
2019-04-23T16:36:05.674Z,20.60
2019-04-23T16:38:38.723Z,20.50
2019-04-23T16:41:07.809Z,20.50
2019-04-23T16:43:38.234Z,20.50
2019-04-23T16:46:09.720Z,20.40
2019-04-23T16:51:25.146Z,20.30
2019-04-23T16:53:52.721Z,20.30
2019-04-23T16:56:25.991Z,20.30
2019-04-23T16:58:44.172Z,20.20
2019-04-23T17:01:20.932Z,20.20
2019-04-23T17:08:57.933Z,20.10
2019-04-23T17:13:46.249Z,19.90
2019-04-23T17:21:22.243Z,19.80
2019-04-23T17:26:26.106Z,19.70
2019-04-23T17:28:51.762Z,19.70
2019-04-23T17:33:59.218Z,19.60
2019-04-23T17:36:49.437Z,19.60
2019-04-23T17:39:25.438Z,19.60
2019-04-23T17:42:25.823Z,19.50
2019-04-23T17:50:13.761Z,19.40
2019-04-23T17:55:13.294Z,19.40
2019-04-23T18:07:50.472Z,19.10
2019-04-23T18:15:15.590Z,18.90
2019-04-23T18:20:29.162Z,18.80
2019-04-23T18:23:06.221Z,18.80
2019-04-23T18:25:50.350Z,18.70
2019-04-23T18:28:15.124Z,18.70
2019-04-23T18:31:10.849Z,18.60
2019-04-23T18:36:32.886Z,18.50
2019-04-23T18:39:08.454Z,18.50
2019-04-23T18:41:43.032Z,18.50
2019-04-23T18:44:17.252Z,18.40
2019-04-23T18:46:41.766Z,18.40
2019-04-23T18:49:10.897Z,18.30
2019-04-23T18:51:41.850Z,18.30
2019-04-23T18:54:05.336Z,18.20
2019-04-23T18:56:59.654Z,18.20
2019-04-23T18:59:23.255Z,18.20
2019-04-23T19:02:07.951Z,18.10
2019-04-23T19:04:54.792Z,18.10
2019-04-23T19:07:43.183Z,18.00
2019-04-23T19:10:26.350Z,18.00
2019-04-23T19:13:07.386Z,18.00
2019-04-23T19:20:45.268Z,18.00
2019-04-23T19:23:08.227Z,17.90
2019-04-23T19:25:31.874Z,17.90
2019-04-23T19:28:10.479Z,17.90
2019-04-23T19:33:21.846Z,17.90
2019-04-23T19:38:17.860Z,17.80
2019-04-23T19:40:56.646Z,17.70
2019-04-23T19:46:35.084Z,17.70
2019-04-23T19:48:57.529Z,17.70
2019-04-23T19:56:50.948Z,17.70
2019-04-23T19:59:31.562Z,17.70
2019-04-23T20:02:00.549Z,17.70
2019-04-23T20:04:39.295Z,17.60
2019-04-23T20:07:12.234Z,17.60
2019-04-23T20:12:01.084Z,17.60
2019-04-23T20:17:23.464Z,17.60
2019-04-23T20:22:14.405Z,17.50
2019-04-23T20:24:46.681Z,17.50
2019-04-23T20:30:15.827Z,17.40
2019-04-23T20:33:06.468Z,17.40
2019-04-23T20:35:13.093Z,17.40
2019-04-23T20:38:25.711Z,17.30
2019-04-23T20:40:23.797Z,17.30
2019-04-23T20:45:21.388Z,17.30
2019-04-23T20:47:51.431Z,17.30
2019-04-23T20:50:16.472Z,17.30
2019-04-23T20:55:39.192Z,17.30
2019-04-23T20:58:15.201Z,17.30
2019-04-23T21:01:11.241Z,17.30
2019-04-23T21:03:46.519Z,17.30
2019-04-23T21:06:09.992Z,17.30
2019-04-23T21:09:00.829Z,17.30
2019-04-23T21:10:58.344Z,17.30
2019-04-23T21:16:08.928Z,17.30
2019-04-23T21:21:09.423Z,17.20
2019-04-23T21:23:44.062Z,17.20
2019-04-23T21:26:05.193Z,17.10
2019-04-23T21:28:44.366Z,17.10
2019-04-23T21:31:37.719Z,17.10
2019-04-23T21:34:02.192Z,17.10
2019-04-23T21:36:35.572Z,17.10
2019-04-23T21:39:40.783Z,17.00
2019-04-23T21:42:10.847Z,17.00
2019-04-23T21:44:35.525Z,17.00
2019-04-23T21:47:08.986Z,17.00
2019-04-23T21:49:52.264Z,16.90
2019-04-23T21:52:12.995Z,16.90
2019-04-23T21:54:42.894Z,16.90
2019-04-23T21:57:08.842Z,16.90
2019-04-23T21:59:42.966Z,16.80
2019-04-23T22:02:10.798Z,16.80
2019-04-23T22:04:50.015Z,16.80
2019-04-23T22:07:16.453Z,16.80
2019-04-23T22:12:16.421Z,16.70
2019-04-23T22:14:55.876Z,16.80
2019-04-23T22:17:16.478Z,16.70
2019-04-23T22:19:55.669Z,16.70
2019-04-23T22:22:16.370Z,16.60
2019-04-23T22:24:54.607Z,16.60
2019-04-23T22:27:18.370Z,16.60
2019-04-23T22:29:48.928Z,16.50
2019-04-23T22:32:32.737Z,16.50
2019-04-23T22:37:32.416Z,16.30
2019-04-23T22:39:59.050Z,16.30
2019-04-23T22:43:07.421Z,16.20
2019-04-23T22:45:07.549Z,16.10
2019-04-23T22:47:33.816Z,16.00
2019-04-23T22:55:12.835Z,15.90
2019-04-23T22:58:04.392Z,15.90
2019-04-23T23:00:14.339Z,16.00
2019-04-23T23:05:35.687Z,16.10
2019-04-23T23:13:05.876Z,16.20
2019-04-23T23:18:07.467Z,16.20
2019-04-23T23:20:29.620Z,16.30
2019-04-23T23:25:30.966Z,16.30
2019-04-23T23:28:06.275Z,16.30
2019-04-23T23:30:42.548Z,16.30
2019-04-23T23:33:27.143Z,16.30
2019-04-23T23:35:35.287Z,16.30
2019-04-23T23:38:07.500Z,16.30
2019-04-23T23:40:47.755Z,16.30
2019-04-23T23:45:46.565Z,16.30
2019-04-23T23:48:14.251Z,16.30
2019-04-23T23:55:50.856Z,16.30
